createdAt,value
2022-11-08T00:02:58.484Z,97.96
2022-11-08T00:08:22.236Z,97.78
2022-11-08T00:13:46.699Z,98.14
2022-11-08T00:18:48.598Z,98.55
2022-11-08T00:23:50.449Z,98.70
2022-11-08T00:28:52.304Z,98.77
2022-11-08T00:33:54.106Z,98.71
2022-11-08T00:38:56.040Z,98.86
2022-11-08T00:43:57.842Z,99.07
2022-11-08T00:48:59.629Z,99.07
2022-11-08T00:54:01.490Z,99.05
2022-11-08T00:59:03.409Z,99.21
2022-11-08T01:04:05.841Z,99.66
2022-11-08T01:09:08.330Z,99.52
2022-11-08T01:14:10.150Z,99.94
2022-11-08T01:19:12.327Z,100.00
2022-11-08T01:24:14.158Z,100.00
2022-11-08T01:29:15.933Z,100.00
2022-11-08T01:34:17.700Z,100.00
2022-11-08T01:39:19.471Z,99.98
2022-11-08T01:44:22.308Z,100.00
2022-11-08T01:49:27.773Z,100.00
2022-11-08T01:54:40.091Z,100.00
2022-11-08T01:59:45.282Z,100.00
2022-11-08T02:04:47.743Z,100.00
2022-11-08T02:09:49.530Z,100.00
2022-11-08T02:14:51.436Z,100.00
2022-11-08T02:19:53.381Z,100.00
2022-11-08T02:24:58.466Z,100.00
2022-11-08T02:30:00.287Z,100.00
2022-11-08T02:35:02.450Z,100.00
2022-11-08T02:40:05.412Z,100.00
2022-11-08T02:45:07.932Z,100.00
2022-11-08T02:50:10.197Z,100.00
2022-11-08T02:55:11.984Z,100.00
2022-11-08T03:00:14.352Z,100.00
2022-11-08T03:05:16.184Z,100.00
2022-11-08T03:10:18.766Z,100.00
2022-11-08T03:15:20.692Z,100.00
2022-11-08T03:20:22.854Z,100.00
2022-11-08T03:25:24.759Z,100.00
2022-11-08T03:30:26.531Z,100.00
2022-11-08T03:35:28.463Z,100.00
2022-11-08T03:40:30.285Z,100.00
2022-11-08T03:45:32.249Z,100.00
2022-11-08T03:50:34.219Z,100.00
2022-11-08T03:55:36.069Z,100.00
2022-11-08T04:00:37.935Z,100.00
2022-11-08T04:05:39.792Z,100.00
2022-11-08T04:10:41.615Z,100.00
2022-11-08T04:15:43.420Z,100.00
2022-11-08T04:21:06.626Z,100.00
2022-11-08T04:26:11.761Z,100.00
2022-11-08T04:31:16.174Z,100.00
2022-11-08T04:36:18.051Z,100.00
2022-11-08T04:41:22.807Z,100.00
2022-11-08T04:46:27.436Z,100.00
2022-11-08T04:51:31.830Z,100.00
2022-11-08T04:56:33.640Z,100.00
2022-11-08T05:01:36.403Z,100.00
2022-11-08T05:06:38.379Z,100.00
2022-11-08T05:11:40.192Z,100.00
2022-11-08T05:16:42.034Z,100.00
2022-11-08T05:22:02.705Z,100.00
2022-11-08T05:27:04.500Z,100.00
2022-11-08T05:32:06.306Z,100.00
2022-11-08T05:37:08.060Z,100.00
2022-11-08T05:42:09.935Z,100.00
2022-11-08T05:47:11.755Z,100.00
2022-11-08T05:52:13.559Z,100.00
2022-11-08T05:57:17.739Z,100.00
2022-11-08T06:02:23.173Z,100.00
2022-11-08T06:07:25.218Z,100.00
2022-11-08T06:12:27.067Z,100.00
2022-11-08T06:17:30.260Z,100.00
2022-11-08T06:22:33.043Z,100.00
2022-11-08T06:27:36.342Z,100.00
2022-11-08T06:32:38.165Z,100.00
2022-11-08T06:37:39.946Z,100.00
2022-11-08T06:42:41.777Z,100.00
2022-11-08T06:47:43.552Z,100.00
2022-11-08T06:52:45.442Z,100.00
2022-11-08T06:57:47.268Z,100.00
2022-11-08T07:02:56.677Z,100.00
2022-11-08T07:07:59.482Z,100.00
2022-11-08T07:13:03.708Z,100.00
2022-11-08T07:18:08.216Z,100.00
2022-11-08T07:23:11.254Z,100.00
2022-11-08T07:28:17.333Z,100.00
2022-11-08T07:33:19.389Z,100.00
2022-11-08T07:38:22.344Z,100.00
2022-11-08T07:43:24.896Z,100.00
2022-11-08T07:48:29.568Z,100.00
2022-11-08T07:53:31.534Z,100.00
2022-11-08T07:58:34.619Z,100.00
2022-11-08T08:03:36.588Z,100.00
2022-11-08T08:08:39.259Z,100.00
2022-11-08T08:13:41.598Z,100.00
2022-11-08T08:18:43.380Z,99.87
2022-11-08T08:23:45.218Z,99.65
2022-11-08T08:28:47.127Z,99.37
2022-11-08T08:33:48.971Z,98.84
2022-11-08T08:38:50.775Z,98.84
2022-11-08T08:43:52.579Z,98.43
2022-11-08T08:48:54.731Z,98.16
2022-11-08T08:53:58.441Z,97.58
2022-11-08T09:04:22.080Z,96.12
2022-11-08T09:09:23.938Z,95.41
2022-11-08T09:14:25.766Z,94.63
2022-11-08T09:19:27.591Z,93.74
2022-11-08T09:24:29.550Z,93.20
2022-11-08T09:29:32.097Z,92.56
2022-11-08T09:34:33.920Z,92.03
2022-11-08T09:39:36.032Z,90.42
2022-11-08T09:44:45.807Z,88.87
2022-11-08T09:50:00.862Z,87.50
2022-11-08T09:55:45.327Z,88.50
2022-11-08T10:00:51.035Z,87.52
2022-11-08T10:05:58.991Z,87.59
2022-11-08T10:11:29.527Z,87.95
2022-11-08T10:16:43.581Z,87.12
2022-11-08T10:22:08.705Z,86.19
2022-11-08T10:27:16.484Z,84.29
2022-11-08T10:32:21.835Z,83.62
2022-11-08T10:37:25.577Z,83.35
2022-11-08T10:42:45.459Z,83.35
2022-11-08T10:47:47.479Z,82.41
2022-11-08T10:53:03.506Z,81.85
2022-11-08T10:58:41.669Z,81.06
2022-11-08T11:03:45.872Z,78.25
2022-11-08T11:08:49.851Z,78.06
2022-11-08T11:14:08.003Z,78.80
2022-11-08T11:19:15.123Z,78.48
2022-11-08T11:24:21.089Z,78.54
2022-11-08T11:29:30.789Z,77.34
2022-11-08T11:34:50.928Z,77.01
2022-11-08T11:40:04.966Z,76.99
2022-11-08T11:45:29.180Z,77.05
2022-11-08T11:50:37.858Z,75.79
2022-11-08T11:55:51.939Z,75.23
2022-11-08T12:01:15.839Z,75.54
2022-11-08T12:06:27.254Z,76.30
2022-11-08T12:11:40.911Z,75.38
2022-11-08T12:16:58.157Z,74.05
2022-11-08T12:22:12.282Z,73.49
2022-11-08T12:27:23.236Z,72.53
2022-11-08T12:32:43.446Z,69.74
2022-11-08T12:38:24.380Z,70.52
2022-11-08T12:43:32.202Z,70.58
2022-11-08T12:49:01.552Z,71.19
2022-11-08T12:54:29.551Z,70.48
2022-11-08T12:59:45.738Z,70.33
2022-11-08T13:05:03.089Z,71.02
2022-11-08T13:10:20.383Z,70.77
2022-11-08T13:15:25.416Z,70.45
2022-11-08T13:20:47.991Z,71.42
2022-11-08T13:25:52.029Z,71.84
2022-11-08T13:31:02.310Z,72.65
2022-11-08T13:36:09.983Z,72.56
2022-11-08T13:41:18.132Z,73.11
2022-11-08T13:46:19.952Z,72.80
2022-11-08T13:51:23.494Z,72.53
2022-11-08T13:56:44.343Z,72.95
2022-11-08T14:01:46.175Z,72.84
2022-11-08T14:07:06.853Z,72.91
2022-11-08T14:12:08.743Z,73.07
2022-11-08T14:17:34.253Z,73.11
2022-11-08T14:22:36.133Z,73.33
2022-11-08T14:27:40.233Z,73.80
2022-11-08T14:32:42.280Z,74.39
2022-11-08T14:37:44.281Z,74.63
2022-11-08T14:42:46.315Z,75.03
2022-11-08T14:48:03.432Z,75.22
2022-11-08T14:53:17.595Z,75.59
2022-11-08T14:58:20.013Z,76.03
2022-11-08T15:03:29.004Z,76.53
2022-11-08T15:08:52.766Z,77.00
2022-11-08T15:13:59.732Z,77.32
2022-11-08T15:19:37.615Z,77.65
2022-11-08T15:24:40.204Z,78.11
2022-11-08T15:29:52.648Z,78.46
2022-11-08T15:34:56.299Z,78.63
2022-11-08T15:40:16.234Z,78.94
2022-11-08T15:45:17.989Z,79.34
2022-11-08T15:50:22.830Z,79.54
2022-11-08T15:55:50.517Z,80.02
2022-11-08T16:00:52.519Z,80.22
2022-11-08T16:05:54.352Z,80.46
2022-11-08T16:10:59.901Z,80.95
2022-11-08T16:16:05.119Z,81.30
2022-11-08T16:21:09.336Z,81.58
2022-11-08T16:26:17.273Z,81.95
2022-11-08T16:31:19.080Z,82.30
2022-11-08T16:36:24.086Z,82.61
2022-11-08T16:41:26.147Z,82.70
2022-11-08T16:46:28.884Z,83.18
2022-11-08T16:51:31.028Z,83.46
2022-11-08T16:56:32.838Z,83.74
2022-11-08T17:01:34.966Z,84.01
2022-11-08T17:06:36.914Z,84.26
2022-11-08T17:11:39.781Z,84.56
2022-11-08T17:16:42.068Z,84.68
2022-11-08T17:21:45.479Z,85.31
2022-11-08T17:26:47.914Z,85.25
2022-11-08T17:31:50.153Z,85.51
2022-11-08T17:36:53.065Z,85.65
2022-11-08T17:41:54.962Z,85.81
2022-11-08T17:46:56.792Z,86.07
2022-11-08T17:51:58.797Z,85.65
2022-11-08T17:57:00.973Z,85.83
2022-11-08T18:02:03.516Z,86.03
2022-11-08T18:07:05.850Z,86.56
2022-11-08T18:12:07.862Z,86.92
2022-11-08T18:17:09.972Z,87.53
2022-11-08T18:22:11.829Z,87.51
2022-11-08T18:27:13.761Z,87.81
2022-11-08T18:32:15.710Z,88.05
2022-11-08T18:37:17.613Z,88.37
2022-11-08T18:42:19.442Z,88.36
2022-11-08T18:47:21.304Z,88.45
2022-11-08T18:52:23.116Z,88.53
2022-11-08T18:57:24.999Z,88.53
2022-11-08T19:02:26.988Z,88.70
2022-11-08T19:07:29.947Z,89.21
2022-11-08T19:12:31.780Z,89.31
2022-11-08T19:17:35.468Z,89.16
2022-11-08T19:22:37.316Z,89.38
2022-11-08T19:27:39.200Z,89.46
2022-11-08T19:32:41.061Z,89.56
2022-11-08T19:37:43.013Z,89.77
2022-11-08T19:42:44.861Z,89.92
2022-11-08T19:47:48.786Z,90.29
2022-11-08T19:52:50.644Z,90.52
2022-11-08T19:57:52.525Z,90.69
2022-11-08T20:02:54.421Z,91.13
2022-11-08T20:07:56.307Z,91.57
2022-11-08T20:12:58.292Z,92.11
2022-11-08T20:18:00.171Z,92.74
2022-11-08T20:23:01.967Z,93.07
2022-11-08T20:28:04.396Z,93.22
2022-11-08T20:33:06.310Z,93.59
2022-11-08T20:38:08.254Z,93.66
2022-11-08T20:43:10.113Z,93.64
2022-11-08T20:48:14.211Z,93.62
2022-11-08T20:53:16.214Z,93.93
2022-11-08T20:58:18.392Z,93.57
2022-11-08T21:03:21.869Z,93.39
2022-11-08T21:13:47.299Z,93.08
2022-11-08T21:18:49.144Z,93.03
2022-11-08T21:23:51.860Z,93.07
2022-11-08T21:28:54.265Z,92.94
2022-11-08T21:33:56.183Z,92.72
2022-11-08T21:38:58.086Z,92.64
2022-11-08T21:44:00.058Z,92.43
2022-11-08T21:49:02.430Z,92.49
2022-11-08T21:54:05.249Z,92.39
2022-11-08T21:59:07.063Z,92.27
2022-11-08T22:04:08.863Z,92.08
2022-11-08T22:09:11.281Z,92.41
2022-11-08T22:14:13.236Z,92.59
2022-11-08T22:19:15.326Z,92.63
2022-11-08T22:24:20.642Z,92.34
2022-11-08T22:29:22.606Z,92.57
2022-11-08T22:34:25.008Z,92.71
2022-11-08T22:39:26.834Z,93.08
2022-11-08T22:44:28.774Z,93.26
2022-11-08T22:49:30.763Z,93.22
2022-11-08T22:54:32.683Z,92.93
2022-11-08T22:59:34.543Z,93.34
2022-11-08T23:04:36.426Z,93.00
2022-11-08T23:09:38.295Z,93.28
2022-11-08T23:14:59.047Z,93.37
2022-11-08T23:20:19.617Z,93.75
2022-11-08T23:25:21.610Z,93.54
2022-11-08T23:30:42.076Z,93.45
2022-11-08T23:36:03.948Z,93.44
2022-11-08T23:41:24.316Z,93.65
2022-11-08T23:46:26.164Z,93.42
2022-11-08T23:51:28.098Z,93.33
2022-11-08T23:56:30.000Z,93.47
